sensor_id;sensor_type;location;lat;lon;timestamp;pressure;altitude;pressure_sealevel;temperature;humidity
45357;BME280;31092;51.924;21.448;2023-03-03T00:00:33;100584.66;;;-6.17;100.00
45357;BME280;31092;51.924;21.448;2023-03-03T00:03:01;100642.91;;;-5.82;100.00
45357;BME280;31092;51.924;21.448;2023-03-03T00:05:31;100653.72;;;-5.66;100.00
45357;BME280;31092;51.924;21.448;2023-03-03T00:07:57;100617.50;;;-5.82;100.00
45357;BME280;31092;51.924;21.448;2023-03-03T00:10:22;100682.69;;;-5.44;100.00
45357;BME280;31092;51.924;21.448;2023-03-03T00:12:48;100593.16;;;-6.10;100.00
45357;BME280;31092;51.924;21.448;2023-03-03T00:15:18;100562.59;;;-6.36;100.00
45357;BME280;31092;51.924;21.448;2023-03-03T00:17:44;100642.13;;;-5.86;100.00
45357;BME280;31092;51.924;21.448;2023-03-03T00:20:36;100686.88;;;-5.64;100.00
45357;BME280;31092;51.924;21.448;2023-03-03T00:25:50;100475.28;;;-6.63;100.00
45357;BME280;31092;51.924;21.448;2023-03-03T00:30:45;100628.44;;;-5.69;100.00
45357;BME280;31092;51.924;21.448;2023-03-03T00:33:35;100560.97;;;-6.14;100.00
45357;BME280;31092;51.924;21.448;2023-03-03T00:39:05;100616.06;;;-5.90;100.00
45357;BME280;31092;51.924;21.448;2023-03-03T00:41:36;100451.72;;;-6.90;100.00
45357;BME280;31092;51.924;21.448;2023-03-03T00:44:30;100645.16;;;-5.71;100.00
45357;BME280;31092;51.924;21.448;2023-03-03T00:47:01;100630.69;;;-5.83;100.00
45357;BME280;31092;51.924;21.448;2023-03-03T00:49:38;100518.53;;;-6.52;100.00
45357;BME280;31092;51.924;21.448;2023-03-03T00:52:13;100600.50;;;-5.95;100.00
45357;BME280;31092;51.924;21.448;2023-03-03T00:54:40;100576.47;;;-6.08;100.00
45357;BME280;31092;51.924;21.448;2023-03-03T00:57:05;100628.75;;;-5.78;100.00
45357;BME280;31092;51.924;21.448;2023-03-03T00:59:31;100621.94;;;-5.84;100.00
45357;BME280;31092;51.924;21.448;2023-03-03T01:01:57;100627.31;;;-5.87;100.00
45357;BME280;31092;51.924;21.448;2023-03-03T01:04:22;100612.03;;;-5.99;100.00
45357;BME280;31092;51.924;21.448;2023-03-03T01:06:48;100607.50;;;-5.94;100.00
45357;BME280;31092;51.924;21.448;2023-03-03T01:09:14;100626.25;;;-5.81;100.00
45357;BME280;31092;51.924;21.448;2023-03-03T01:11:39;100509.81;;;-6.52;100.00
45357;BME280;31092;51.924;21.448;2023-03-03T01:14:05;100577.38;;;-6.09;100.00
45357;BME280;31092;51.924;21.448;2023-03-03T01:16:31;100588.50;;;-6.02;100.00
45357;BME280;31092;51.924;21.448;2023-03-03T01:18:58;100487.84;;;-6.48;100.00
45357;BME280;31092;51.924;21.448;2023-03-03T01:21:23;100586.22;;;-5.86;100.00
45357;BME280;31092;51.924;21.448;2023-03-03T01:23:49;100564.97;;;-6.04;100.00
45357;BME280;31092;51.924;21.448;2023-03-03T01:26:14;100610.69;;;-5.87;100.00
45357;BME280;31092;51.924;21.448;2023-03-03T01:28:40;100513.25;;;-6.50;100.00
45357;BME280;31092;51.924;21.448;2023-03-03T01:31:05;100594.50;;;-5.98;100.00
45357;BME280;31092;51.924;21.448;2023-03-03T01:33:32;100573.13;;;-6.11;100.00
45357;BME280;31092;51.924;21.448;2023-03-03T01:35:58;100559.28;;;-6.16;100.00
45357;BME280;31092;51.924;21.448;2023-03-03T01:38:24;100587.34;;;-5.93;100.00
45357;BME280;31092;51.924;21.448;2023-03-03T01:40:54;100553.94;;;-6.13;100.00
45357;BME280;31092;51.924;21.448;2023-03-03T01:43:20;100533.13;;;-6.18;100.00
45357;BME280;31092;51.924;21.448;2023-03-03T01:48:33;100562.63;;;-6.11;100.00
45357;BME280;31092;51.924;21.448;2023-03-03T01:51:01;100595.44;;;-5.99;100.00
45357;BME280;31092;51.924;21.448;2023-03-03T01:53:31;100552.59;;;-6.25;100.00
45357;BME280;31092;51.924;21.448;2023-03-03T01:55:58;100455.09;;;-6.86;100.00
45357;BME280;31092;51.924;21.448;2023-03-03T01:58:27;100471.69;;;-6.61;100.00
45357;BME280;31092;51.924;21.448;2023-03-03T02:00:56;100577.53;;;-5.88;100.00
45357;BME280;31092;51.924;21.448;2023-03-03T02:03:25;100527.16;;;-6.23;100.00
45357;BME280;31092;51.924;21.448;2023-03-03T02:05:55;100421.91;;;-6.86;100.00
45357;BME280;31092;51.924;21.448;2023-03-03T02:08:28;100476.78;;;-6.56;100.00
45357;BME280;31092;51.924;21.448;2023-03-03T02:10:56;100529.69;;;-6.20;100.00
45357;BME280;31092;51.924;21.448;2023-03-03T02:13:22;100544.41;;;-6.16;100.00
45357;BME280;31092;51.924;21.448;2023-03-03T02:15:47;100476.97;;;-6.62;100.00
45357;BME280;31092;51.924;21.448;2023-03-03T02:18:15;100428.03;;;-6.87;100.00
45357;BME280;31092;51.924;21.448;2023-03-03T02:21:01;100463.88;;;-6.62;100.00
45357;BME280;31092;51.924;21.448;2023-03-03T02:23:34;100412.56;;;-6.94;100.00
45357;BME280;31092;51.924;21.448;2023-03-03T02:26:06;100443.53;;;-6.81;100.00
45357;BME280;31092;51.924;21.448;2023-03-03T02:28:33;100564.16;;;-6.06;100.00
45357;BME280;31092;51.924;21.448;2023-03-03T02:31:00;100552.13;;;-6.11;100.00
45357;BME280;31092;51.924;21.448;2023-03-03T02:33:27;100581.56;;;-6.03;100.00
45357;BME280;31092;51.924;21.448;2023-03-03T02:35:54;100473.69;;;-6.69;100.00
45357;BME280;31092;51.924;21.448;2023-03-03T02:38:21;100582.69;;;-6.10;100.00
45357;BME280;31092;51.924;21.448;2023-03-03T02:40:59;100586.00;;;-6.05;100.00
45357;BME280;31092;51.924;21.448;2023-03-03T02:43:36;100437.63;;;-6.86;100.00
45357;BME280;31092;51.924;21.448;2023-03-03T02:46:05;100446.00;;;-6.76;100.00
45357;BME280;31092;51.924;21.448;2023-03-03T02:48:31;100570.31;;;-6.07;100.00
45357;BME280;31092;51.924;21.448;2023-03-03T02:50:56;100508.88;;;-6.49;100.00
45357;BME280;31092;51.924;21.448;2023-03-03T02:53:22;100463.84;;;-6.87;100.00
45357;BME280;31092;51.924;21.448;2023-03-03T02:55:47;100536.97;;;-6.28;100.00
45357;BME280;31092;51.924;21.448;2023-03-03T02:58:13;100429.66;;;-6.83;100.00
45357;BME280;31092;51.924;21.448;2023-03-03T03:00:38;100547.56;;;-6.06;100.00
45357;BME280;31092;51.924;21.448;2023-03-03T03:03:04;100519.00;;;-6.14;100.00
45357;BME280;31092;51.924;21.448;2023-03-03T03:05:29;100550.38;;;-5.87;100.00
45357;BME280;31092;51.924;21.448;2023-03-03T03:07:55;100546.84;;;-5.86;100.00
45357;BME280;31092;51.924;21.448;2023-03-03T03:10:20;100498.03;;;-6.14;100.00
45357;BME280;31092;51.924;21.448;2023-03-03T03:12:46;100460.41;;;-6.38;100.00
45357;BME280;31092;51.924;21.448;2023-03-03T03:15:11;100515.09;;;-6.02;100.00
45357;BME280;31092;51.924;21.448;2023-03-03T03:17:37;100514.53;;;-5.87;100.00
45357;BME280;31092;51.924;21.448;2023-03-03T03:20:03;100433.63;;;-6.21;100.00
45357;BME280;31092;51.924;21.448;2023-03-03T03:22:29;100429.94;;;-6.15;100.00
45357;BME280;31092;51.924;21.448;2023-03-03T03:24:54;100529.47;;;-5.42;100.00
45357;BME280;31092;51.924;21.448;2023-03-03T03:27:20;100476.81;;;-5.61;100.00
45357;BME280;31092;51.924;21.448;2023-03-03T03:29:47;100477.59;;;-5.59;100.00
45357;BME280;31092;51.924;21.448;2023-03-03T03:32:13;100466.88;;;-5.53;100.00
45357;BME280;31092;51.924;21.448;2023-03-03T03:34:38;100420.34;;;-5.71;100.00
45357;BME280;31092;51.924;21.448;2023-03-03T03:37:04;100390.13;;;-5.81;100.00
45357;BME280;31092;51.924;21.448;2023-03-03T03:39:29;100504.13;;;-5.19;100.00
45357;BME280;31092;51.924;21.448;2023-03-03T03:41:55;100537.47;;;-4.99;100.00
45357;BME280;31092;51.924;21.448;2023-03-03T03:44:21;100392.47;;;-5.73;100.00
45357;BME280;31092;51.924;21.448;2023-03-03T03:46:48;100412.88;;;-5.58;100.00
45357;BME280;31092;51.924;21.448;2023-03-03T03:49:13;100504.03;;;-4.94;100.00
45357;BME280;31092;51.924;21.448;2023-03-03T03:51:39;100486.22;;;-4.88;100.00
45357;BME280;31092;51.924;21.448;2023-03-03T03:54:06;100460.53;;;-5.01;100.00
45357;BME280;31092;51.924;21.448;2023-03-03T03:56:31;100531.63;;;-4.42;100.00
45357;BME280;31092;51.924;21.448;2023-03-03T03:58:57;100484.44;;;-4.65;100.00
45357;BME280;31092;51.924;21.448;2023-03-03T04:01:22;100455.25;;;-4.79;100.00
45357;BME280;31092;51.924;21.448;2023-03-03T04:03:49;100392.28;;;-5.03;100.00
45357;BME280;31092;51.924;21.448;2023-03-03T04:06:15;100490.69;;;-4.47;100.00
45357;BME280;31092;51.924;21.448;2023-03-03T04:08:40;100514.69;;;-4.14;100.00
45357;BME280;31092;51.924;21.448;2023-03-03T04:11:06;100491.50;;;-4.25;100.00
45357;BME280;31092;51.924;21.448;2023-03-03T04:13:31;100481.19;;;-4.29;100.00
45357;BME280;31092;51.924;21.448;2023-03-03T04:16:00;100380.66;;;-4.77;100.00
45357;BME280;31092;51.924;21.448;2023-03-03T04:18:26;100408.59;;;-4.54;100.00
45357;BME280;31092;51.924;21.448;2023-03-03T04:20:52;100390.47;;;-4.60;100.00
45357;BME280;31092;51.924;21.448;2023-03-03T04:23:19;100385.06;;;-4.57;100.00
45357;BME280;31092;51.924;21.448;2023-03-03T04:25:46;100481.69;;;-4.01;100.00
45357;BME280;31092;51.924;21.448;2023-03-03T04:28:12;100478.06;;;-3.98;100.00
45357;BME280;31092;51.924;21.448;2023-03-03T04:30:38;100374.94;;;-4.46;100.00
45357;BME280;31092;51.924;21.448;2023-03-03T04:33:03;100467.13;;;-3.89;100.00
45357;BME280;31092;51.924;21.448;2023-03-03T04:35:29;100446.75;;;-4.04;100.00
45357;BME280;31092;51.924;21.448;2023-03-03T04:37:54;100428.34;;;-4.04;100.00
45357;BME280;31092;51.924;21.448;2023-03-03T04:40:20;100467.63;;;-3.81;100.00
45357;BME280;31092;51.924;21.448;2023-03-03T04:42:45;100462.53;;;-3.84;100.00
45357;BME280;31092;51.924;21.448;2023-03-03T04:45:11;100478.69;;;-3.73;100.00
45357;BME280;31092;51.924;21.448;2023-03-03T04:47:36;100465.06;;;-3.82;100.00
45357;BME280;31092;51.924;21.448;2023-03-03T04:50:02;100407.69;;;-4.14;100.00
45357;BME280;31092;51.924;21.448;2023-03-03T04:52:28;100358.31;;;-4.46;100.00
45357;BME280;31092;51.924;21.448;2023-03-03T04:54:54;100361.09;;;-4.49;100.00
45357;BME280;31092;51.924;21.448;2023-03-03T04:57:19;100383.88;;;-4.29;100.00
45357;BME280;31092;51.924;21.448;2023-03-03T04:59:45;100456.94;;;-3.97;100.00
45357;BME280;31092;51.924;21.448;2023-03-03T05:02:10;100379.63;;;-4.52;100.00
45357;BME280;31092;51.924;21.448;2023-03-03T05:04:37;100336.34;;;-4.85;100.00
45357;BME280;31092;51.924;21.448;2023-03-03T05:07:03;100463.94;;;-4.16;100.00
45357;BME280;31092;51.924;21.448;2023-03-03T05:09:29;100452.97;;;-4.26;100.00
45357;BME280;31092;51.924;21.448;2023-03-03T05:11:54;100404.47;;;-4.60;100.00
45357;BME280;31092;51.924;21.448;2023-03-03T05:14:20;100430.22;;;-4.47;100.00
45357;BME280;31092;51.924;21.448;2023-03-03T05:16:46;100409.00;;;-4.63;100.00
45357;BME280;31092;51.924;21.448;2023-03-03T05:19:12;100457.63;;;-4.32;100.00
45357;BME280;31092;51.924;21.448;2023-03-03T05:21:37;100416.88;;;-4.63;100.00
45357;BME280;31092;51.924;21.448;2023-03-03T05:24:10;100347.03;;;-5.10;100.00
45357;BME280;31092;51.924;21.448;2023-03-03T05:26:37;100342.09;;;-5.17;100.00
45357;BME280;31092;51.924;21.448;2023-03-03T05:29:05;100284.16;;;-5.55;100.00
45357;BME280;31092;51.924;21.448;2023-03-03T05:31:31;100403.25;;;-4.93;100.00
45357;BME280;31092;51.924;21.448;2023-03-03T05:33:57;100447.88;;;-4.71;100.00
45357;BME280;31092;51.924;21.448;2023-03-03T05:36:23;100446.19;;;-4.72;100.00
45357;BME280;31092;51.924;21.448;2023-03-03T05:38:48;100425.06;;;-4.91;100.00
45357;BME280;31092;51.924;21.448;2023-03-03T05:41:14;100434.28;;;-4.81;100.00
45357;BME280;31092;51.924;21.448;2023-03-03T05:43:39;100458.59;;;-4.76;100.00
45357;BME280;31092;51.924;21.448;2023-03-03T05:46:05;100445.84;;;-5.07;100.00
45357;BME280;31092;51.924;21.448;2023-03-03T05:48:30;100467.38;;;-4.97;100.00
45357;BME280;31092;51.924;21.448;2023-03-03T05:50:59;100445.00;;;-5.08;100.00
45357;BME280;31092;51.924;21.448;2023-03-03T05:53:25;100435.53;;;-5.12;100.00
45357;BME280;31092;51.924;21.448;2023-03-03T05:55:51;100455.13;;;-4.98;100.00
45357;BME280;31092;51.924;21.448;2023-03-03T05:58:16;100457.03;;;-5.02;100.00
45357;BME280;31092;51.924;21.448;2023-03-03T06:00:42;100480.78;;;-4.83;100.00
45357;BME280;31092;51.924;21.448;2023-03-03T06:03:08;100453.09;;;-4.92;100.00
45357;BME280;31092;51.924;21.448;2023-03-03T06:05:33;100479.53;;;-4.74;100.00
45357;BME280;31092;51.924;21.448;2023-03-03T06:07:59;100484.31;;;-4.62;100.00
45357;BME280;31092;51.924;21.448;2023-03-03T06:10:25;100443.16;;;-4.84;100.00
45357;BME280;31092;51.924;21.448;2023-03-03T06:12:50;100409.28;;;-4.91;100.00
45357;BME280;31092;51.924;21.448;2023-03-03T06:15:16;100392.28;;;-5.03;100.00
45357;BME280;31092;51.924;21.448;2023-03-03T06:17:42;100404.31;;;-4.77;100.00
45357;BME280;31092;51.924;21.448;2023-03-03T06:20:08;100375.25;;;-4.72;100.00
45357;BME280;31092;51.924;21.448;2023-03-03T06:22:34;100473.78;;;-4.01;100.00
45357;BME280;31092;51.924;21.448;2023-03-03T06:24:59;100343.25;;;-4.43;100.00
45357;BME280;31092;51.924;21.448;2023-03-03T06:27:25;100449.16;;;-3.61;100.00
45357;BME280;31092;51.924;21.448;2023-03-03T06:29:50;100452.16;;;-3.30;100.00
45357;BME280;31092;51.924;21.448;2023-03-03T06:32:16;100320.59;;;-3.89;100.00
45357;BME280;31092;51.924;21.448;2023-03-03T06:34:42;100441.19;;;-3.04;100.00
45357;BME280;31092;51.924;21.448;2023-03-03T06:37:07;100425.94;;;-2.97;100.00
45357;BME280;31092;51.924;21.448;2023-03-03T06:39:33;100447.59;;;-2.73;100.00
45357;BME280;31092;51.924;21.448;2023-03-03T06:41:58;100466.44;;;-2.46;100.00
45357;BME280;31092;51.924;21.448;2023-03-03T06:44:24;100321.53;;;-3.17;100.00
45357;BME280;31092;51.924;21.448;2023-03-03T06:46:49;100429.84;;;-2.52;100.00
45357;BME280;31092;51.924;21.448;2023-03-03T06:49:15;100325.09;;;-3.01;100.00
45357;BME280;31092;51.924;21.448;2023-03-03T06:51:40;100417.72;;;-2.39;100.00
45357;BME280;31092;51.924;21.448;2023-03-03T06:56:40;100391.44;;;-2.58;100.00
45357;BME280;31092;51.924;21.448;2023-03-03T06:59:26;100349.59;;;-2.81;100.00
45357;BME280;31092;51.924;21.448;2023-03-03T07:01:53;100459.16;;;-2.24;100.00
45357;BME280;31092;51.924;21.448;2023-03-03T07:04:28;100457.50;;;-2.09;100.00
45357;BME280;31092;51.924;21.448;2023-03-03T07:06:56;100434.72;;;-2.27;100.00
45357;BME280;31092;51.924;21.448;2023-03-03T07:09:24;100460.81;;;-1.88;100.00
45357;BME280;31092;51.924;21.448;2023-03-03T07:11:52;100438.91;;;-1.90;100.00
45357;BME280;31092;51.924;21.448;2023-03-03T07:14:19;100351.00;;;-2.24;100.00
45357;BME280;31092;51.924;21.448;2023-03-03T07:16:45;100319.38;;;-2.41;100.00
45357;BME280;31092;51.924;21.448;2023-03-03T07:19:19;100454.03;;;-1.60;100.00
45357;BME280;31092;51.924;21.448;2023-03-03T07:21:45;100455.13;;;-1.64;100.00
45357;BME280;31092;51.924;21.448;2023-03-03T07:24:28;100429.31;;;-1.75;100.00
45357;BME280;31092;51.924;21.448;2023-03-03T07:29:36;100461.28;;;-1.64;100.00
45357;BME280;31092;51.924;21.448;2023-03-03T07:32:07;100459.56;;;-1.65;100.00
45357;BME280;31092;51.924;21.448;2023-03-03T07:34:48;100443.97;;;-1.70;100.00
45357;BME280;31092;51.924;21.448;2023-03-03T07:37:26;100418.31;;;-1.83;100.00
45357;BME280;31092;51.924;21.448;2023-03-03T07:39:53;100443.72;;;-1.65;100.00
45357;BME280;31092;51.924;21.448;2023-03-03T07:44:57;100390.66;;;-1.76;100.00
45357;BME280;31092;51.924;21.448;2023-03-03T07:47:35;100444.09;;;-1.39;100.00
45357;BME280;31092;51.924;21.448;2023-03-03T07:50:14;100393.63;;;-1.51;100.00
45357;BME280;31092;51.924;21.448;2023-03-03T07:52:42;100362.22;;;-1.55;100.00
45357;BME280;31092;51.924;21.448;2023-03-03T07:55:35;100442.91;;;-1.02;100.00
45357;BME280;31092;51.924;21.448;2023-03-03T07:58:19;100415.78;;;-1.06;100.00
45357;BME280;31092;51.924;21.448;2023-03-03T08:01:27;100435.38;;;-0.94;100.00
45357;BME280;31092;51.924;21.448;2023-03-03T08:03:54;100252.69;;;-1.96;100.00
45357;BME280;31092;51.924;21.448;2023-03-03T08:06:37;100452.94;;;-0.93;100.00
45357;BME280;31092;51.924;21.448;2023-03-03T08:11:52;100451.25;;;-1.10;100.00
45357;BME280;31092;51.924;21.448;2023-03-03T08:14:25;100372.44;;;-1.49;100.00
45357;BME280;31092;51.924;21.448;2023-03-03T08:16:51;100454.41;;;-1.03;100.00
45357;BME280;31092;51.924;21.448;2023-03-03T08:19:17;100460.63;;;-0.88;100.00
45357;BME280;31092;51.924;21.448;2023-03-03T08:21:43;100449.44;;;-0.93;100.00
45357;BME280;31092;51.924;21.448;2023-03-03T08:24:09;100450.88;;;-0.88;100.00
45357;BME280;31092;51.924;21.448;2023-03-03T08:26:35;100369.25;;;-1.40;100.00
45357;BME280;31092;51.924;21.448;2023-03-03T08:29:00;100376.91;;;-1.35;100.00
45357;BME280;31092;51.924;21.448;2023-03-03T08:31:26;100468.72;;;-0.91;100.00
45357;BME280;31092;51.924;21.448;2023-03-03T08:33:51;100430.00;;;-1.08;100.00
45357;BME280;31092;51.924;21.448;2023-03-03T08:36:17;100449.59;;;-0.97;100.00
45357;BME280;31092;51.924;21.448;2023-03-03T08:38:42;100491.06;;;-0.81;100.00
45357;BME280;31092;51.924;21.448;2023-03-03T08:41:08;100384.84;;;-1.35;100.00
45357;BME280;31092;51.924;21.448;2023-03-03T08:43:34;100395.06;;;-1.29;100.00
45357;BME280;31092;51.924;21.448;2023-03-03T08:46:01;100416.91;;;-1.10;100.00
45357;BME280;31092;51.924;21.448;2023-03-03T08:48:29;100486.41;;;-0.62;100.00
45357;BME280;31092;51.924;21.448;2023-03-03T08:50:55;100460.50;;;-0.71;100.00
45357;BME280;31092;51.924;21.448;2023-03-03T08:53:21;100480.44;;;-0.65;100.00
45357;BME280;31092;51.924;21.448;2023-03-03T08:55:47;100398.97;;;-1.05;100.00
45357;BME280;31092;51.924;21.448;2023-03-03T08:58:13;100475.88;;;-0.47;100.00
45357;BME280;31092;51.924;21.448;2023-03-03T09:00:39;100453.81;;;-0.62;100.00
45357;BME280;31092;51.924;21.448;2023-03-03T09:03:05;100487.06;;;-0.42;100.00
45357;BME280;31092;51.924;21.448;2023-03-03T09:05:32;100423.72;;;-0.76;100.00
45357;BME280;31092;51.924;21.448;2023-03-03T09:07:58;100472.09;;;-0.43;100.00
45357;BME280;31092;51.924;21.448;2023-03-03T09:10:26;100453.91;;;-0.34;100.00
45357;BME280;31092;51.924;21.448;2023-03-03T09:12:54;100443.31;;;-0.34;100.00
45357;BME280;31092;51.924;21.448;2023-03-03T09:15:25;100435.88;;;-0.27;100.00
45357;BME280;31092;51.924;21.448;2023-03-03T09:17:52;100470.59;;;-0.03;100.00
45357;BME280;31092;51.924;21.448;2023-03-03T09:20:36;100431.31;;;-0.11;100.00
45357;BME280;31092;51.924;21.448;2023-03-03T09:23:24;100468.81;;;0.12;100.00
45357;BME280;31092;51.924;21.448;2023-03-03T09:25:52;100469.78;;;0.11;100.00
45357;BME280;31092;51.924;21.448;2023-03-03T09:28:29;100452.34;;;0.07;100.00
45357;BME280;31092;51.924;21.448;2023-03-03T09:30:59;100430.59;;;0.02;100.00
45357;BME280;31092;51.924;21.448;2023-03-03T09:33:30;100470.44;;;0.29;100.00
45357;BME280;31092;51.924;21.448;2023-03-03T09:38:44;100448.84;;;0.20;100.00
45357;BME280;31092;51.924;21.448;2023-03-03T09:49:51;100443.72;;;0.32;100.00
45357;BME280;31092;51.924;21.448;2023-03-03T09:52:39;100323.25;;;-0.33;100.00
45357;BME280;31092;51.924;21.448;2023-03-03T09:55:22;100439.75;;;0.39;100.00
45357;BME280;31092;51.924;21.448;2023-03-03T10:03:44;100435.38;;;0.66;100.00
45357;BME280;31092;51.924;21.448;2023-03-03T10:06:24;100437.53;;;0.74;100.00
45357;BME280;31092;51.924;21.448;2023-03-03T10:11:50;100345.50;;;0.35;100.00
45357;BME280;31092;51.924;21.448;2023-03-03T10:19:40;100427.91;;;1.00;100.00
45357;BME280;31092;51.924;21.448;2023-03-03T10:22:55;100417.19;;;1.02;100.00
45357;BME280;31092;51.924;21.448;2023-03-03T10:25:37;100297.25;;;0.44;100.00
45357;BME280;31092;51.924;21.448;2023-03-03T10:33:01;100372.66;;;1.19;100.00
45357;BME280;31092;51.924;21.448;2023-03-03T10:36:01;100287.03;;;0.65;100.00
45357;BME280;31092;51.924;21.448;2023-03-03T10:46:28;100373.31;;;1.10;100.00
45357;BME280;31092;51.924;21.448;2023-03-03T11:00:44;100408.28;;;1.42;100.00
45357;BME280;31092;51.924;21.448;2023-03-03T11:08:45;100408.38;;;1.41;100.00
45357;BME280;31092;51.924;21.448;2023-03-03T11:22:23;100422.47;;;1.29;100.00
45357;BME280;31092;51.924;21.448;2023-03-03T11:35:21;100388.47;;;0.81;100.00
45357;BME280;31092;51.924;21.448;2023-03-03T11:40:55;100406.38;;;1.05;100.00
45357;BME280;31092;51.924;21.448;2023-03-03T11:43:29;100354.50;;;0.74;100.00
45357;BME280;31092;51.924;21.448;2023-03-03T11:46:17;100370.97;;;0.79;100.00
45357;BME280;31092;51.924;21.448;2023-03-03T11:51:47;100401.97;;;0.91;100.00
45357;BME280;31092;51.924;21.448;2023-03-03T11:54:30;100411.53;;;0.93;100.00
45357;BME280;31092;51.924;21.448;2023-03-03T12:10:27;100392.66;;;0.71;100.00
45357;BME280;31092;51.924;21.448;2023-03-03T12:15:50;100398.22;;;0.54;100.00
45357;BME280;31092;51.924;21.448;2023-03-03T12:34:29;100376.97;;;0.12;100.00
45357;BME280;31092;51.924;21.448;2023-03-03T12:39:44;100402.22;;;0.18;100.00
45357;BME280;31092;51.924;21.448;2023-03-03T12:42:35;100418.19;;;0.16;100.00
45357;BME280;31092;51.924;21.448;2023-03-03T12:48:14;100306.06;;;-0.54;100.00
45357;BME280;31092;51.924;21.448;2023-03-03T12:55:51;100370.44;;;-0.25;100.00
45357;BME280;31092;51.924;21.448;2023-03-03T13:01:08;100427.28;;;-0.02;100.00
45357;BME280;31092;51.924;21.448;2023-03-03T13:04:44;100310.66;;;-0.72;100.00
45357;BME280;31092;51.924;21.448;2023-03-03T13:06:47;100416.03;;;-0.06;100.00
45357;BME280;31092;51.924;21.448;2023-03-03T13:09:31;100417.06;;;-0.08;100.00
45357;BME280;31092;51.924;21.448;2023-03-03T13:15:05;100388.22;;;-0.27;100.00
45357;BME280;31092;51.924;21.448;2023-03-03T13:31:09;100387.91;;;-0.37;100.00
45357;BME280;31092;51.924;21.448;2023-03-03T13:33:36;100411.66;;;-0.35;100.00
45357;BME280;31092;51.924;21.448;2023-03-03T13:36:14;100305.91;;;-0.95;100.00
45357;BME280;31092;51.924;21.448;2023-03-03T13:38:46;100417.03;;;-0.37;100.00
45357;BME280;31092;51.924;21.448;2023-03-03T13:41:30;100405.03;;;-0.42;100.00
45357;BME280;31092;51.924;21.448;2023-03-03T13:44:17;100405.03;;;-0.42;100.00
45357;BME280;31092;51.924;21.448;2023-03-03T13:52:12;100311.09;;;-0.94;100.00
45357;BME280;31092;51.924;21.448;2023-03-03T14:06:13;100299.91;;;-1.13;100.00
45357;BME280;31092;51.924;21.448;2023-03-03T14:16:57;100390.78;;;-0.70;100.00
45357;BME280;31092;51.924;21.448;2023-03-03T14:22:18;100371.38;;;-0.85;100.00
45357;BME280;31092;51.924;21.448;2023-03-03T14:25:08;100396.44;;;-0.76;100.00
45357;BME280;31092;51.924;21.448;2023-03-03T14:38:11;100261.84;;;-1.55;100.00
45357;BME280;31092;51.924;21.448;2023-03-03T14:40:38;100380.53;;;-0.90;100.00
45357;BME280;31092;51.924;21.448;2023-03-03T14:43:32;100391.41;;;-0.81;100.00
45357;BME280;31092;51.924;21.448;2023-03-03T14:46:21;100198.84;;;-1.93;100.00
45357;BME280;31092;51.924;21.448;2023-03-03T14:49:28;100069.78;;;-2.74;100.00
45357;BME280;31092;51.924;21.448;2023-03-03T14:52:02;100373.88;;;-0.98;100.00
45357;BME280;31092;51.924;21.448;2023-03-03T14:54:36;100387.22;;;-0.99;100.00
45357;BME280;31092;51.924;21.448;2023-03-03T14:57:11;100397.84;;;-0.85;100.00
45357;BME280;31092;51.924;21.448;2023-03-03T14:59:40;100377.66;;;-1.02;100.00
45357;BME280;31092;51.924;21.448;2023-03-03T15:04:46;100310.47;;;-1.43;100.00
45357;BME280;31092;51.924;21.448;2023-03-03T15:07:33;100313.88;;;-1.41;100.00
45357;BME280;31092;51.924;21.448;2023-03-03T15:10:00;100315.84;;;-1.45;100.00
45357;BME280;31092;51.924;21.448;2023-03-03T15:12:34;100412.25;;;-0.90;100.00
45357;BME280;31092;51.924;21.448;2023-03-03T15:17:40;100294.19;;;-1.52;100.00
45357;BME280;31092;51.924;21.448;2023-03-03T15:21:17;100378.78;;;-1.06;100.00
45357;BME280;31092;51.924;21.448;2023-03-03T15:23:58;100396.47;;;-0.92;100.00
45357;BME280;31092;51.924;21.448;2023-03-03T15:40:02;100400.16;;;-0.94;100.00
45357;BME280;31092;51.924;21.448;2023-03-03T15:42:46;100384.63;;;-1.01;100.00
45357;BME280;31092;51.924;21.448;2023-03-03T15:56:49;100312.88;;;-1.55;100.00
45357;BME280;31092;51.924;21.448;2023-03-03T16:02:19;100348.47;;;-1.30;100.00
45357;BME280;31092;51.924;21.448;2023-03-03T16:07:38;100382.34;;;-1.07;100.00
45357;BME280;31092;51.924;21.448;2023-03-03T16:21:54;100400.84;;;-1.07;100.00
45357;BME280;31092;51.924;21.448;2023-03-03T16:27:28;100390.47;;;-1.10;100.00
45357;BME280;31092;51.924;21.448;2023-03-03T16:32:52;100284.09;;;-1.75;100.00
45357;BME280;31092;51.924;21.448;2023-03-03T16:35:24;100364.47;;;-1.33;100.00
45357;BME280;31092;51.924;21.448;2023-03-03T16:38:01;100369.66;;;-1.32;100.00
45357;BME280;31092;51.924;21.448;2023-03-03T16:40:37;100268.09;;;-1.88;100.00
45357;BME280;31092;51.924;21.448;2023-03-03T16:45:41;100396.53;;;-1.24;100.00
45357;BME280;31092;51.924;21.448;2023-03-03T16:48:15;100402.56;;;-1.22;100.00
45357;BME280;31092;51.924;21.448;2023-03-03T16:50:54;100397.38;;;-1.23;100.00
45357;BME280;31092;51.924;21.448;2023-03-03T16:53:42;100388.50;;;-1.22;100.00
45357;BME280;31092;51.924;21.448;2023-03-03T17:01:49;100378.59;;;-1.18;100.00
45357;BME280;31092;51.924;21.448;2023-03-03T17:04:33;100379.63;;;-1.21;100.00
45357;BME280;31092;51.924;21.448;2023-03-03T17:15:12;100392.84;;;-1.21;100.00
45357;BME280;31092;51.924;21.448;2023-03-03T17:18:07;100386.81;;;-1.23;100.00
45357;BME280;31092;51.924;21.448;2023-03-03T17:44:26;100280.84;;;-1.96;100.00
45357;BME280;31092;51.924;21.448;2023-03-03T17:46:59;100324.88;;;-1.65;100.00